sensor_id;sensor_type;location;lat;lon;timestamp;P1;durP1;ratioP1;P2;durP2;ratioP2
46417;SDS011;69884;64.758;20.962;2023-07-20T05:57:56;1.27;;;1.17;;
46417;SDS011;69884;64.758;20.962;2023-07-20T06:37:10;1.83;;;1.40;;
46417;SDS011;69884;64.758;20.962;2023-07-20T06:43:18;1.60;;;1.50;;
46417;SDS011;69884;64.758;20.962;2023-07-20T07:01:51;1.30;;;1.20;;
46417;SDS011;69884;64.758;20.962;2023-07-20T07:07:48;1.52;;;1.00;;
46417;SDS011;69884;64.758;20.962;2023-07-20T07:10:39;1.20;;;1.10;;
46417;SDS011;69884;64.758;20.962;2023-07-20T07:13:33;1.80;;;1.33;;
46417;SDS011;69884;64.758;20.962;2023-07-20T07:16:04;1.42;;;1.17;;
46417;SDS011;69884;64.758;20.962;2023-07-20T07:18:51;1.52;;;1.20;;
46417;SDS011;69884;64.758;20.962;2023-07-20T07:21:38;1.58;;;1.10;;
46417;SDS011;69884;64.758;20.962;2023-07-20T07:24:03;2.90;;;1.40;;
46417;SDS011;69884;64.758;20.962;2023-07-20T07:26:51;1.35;;;1.25;;
46417;SDS011;69884;64.758;20.962;2023-07-20T07:29:27;1.25;;;1.00;;
46417;SDS011;69884;64.758;20.962;2023-07-20T07:32:10;1.80;;;1.20;;
46417;SDS011;69884;64.758;20.962;2023-07-20T07:34:53;1.42;;;1.33;;
46417;SDS011;69884;64.758;20.962;2023-07-20T07:37:26;0.90;;;0.90;;
46417;SDS011;69884;64.758;20.962;2023-07-20T07:40:11;1.73;;;1.10;;
46417;SDS011;69884;64.758;20.962;2023-07-20T07:43:03;1.90;;;1.20;;
46417;SDS011;69884;64.758;20.962;2023-07-20T07:45:34;1.38;;;1.20;;
46417;SDS011;69884;64.758;20.962;2023-07-20T07:48:00;1.30;;;1.20;;
46417;SDS011;69884;64.758;20.962;2023-07-20T07:50:26;2.30;;;1.27;;
46417;SDS011;69884;64.758;20.962;2023-07-20T07:52:52;1.40;;;1.10;;
46417;SDS011;69884;64.758;20.962;2023-07-20T07:55:17;1.30;;;1.20;;
46417;SDS011;69884;64.758;20.962;2023-07-20T07:57:43;1.90;;;1.30;;
46417;SDS011;69884;64.758;20.962;2023-07-20T08:00:08;1.48;;;1.35;;
46417;SDS011;69884;64.758;20.962;2023-07-20T08:02:39;1.25;;;1.10;;
46417;SDS011;69884;64.758;20.962;2023-07-20T08:05:26;1.30;;;1.20;;
46417;SDS011;69884;64.758;20.962;2023-07-20T08:11:16;1.23;;;1.10;;
46417;SDS011;69884;64.758;20.962;2023-07-20T08:14:11;1.30;;;1.20;;
46417;SDS011;69884;64.758;20.962;2023-07-20T08:27:30;2.00;;;1.20;;
46417;SDS011;69884;64.758;20.962;2023-07-20T08:53:45;2.90;;;2.00;;
46417;SDS011;69884;64.758;20.962;2023-07-20T08:59:37;3.28;;;1.67;;
46417;SDS011;69884;64.758;20.962;2023-07-20T09:10:11;2.67;;;2.03;;
46417;SDS011;69884;64.758;20.962;2023-07-20T09:12:57;3.17;;;2.55;;
46417;SDS011;69884;64.758;20.962;2023-07-20T09:15:54;3.30;;;2.42;;
46417;SDS011;69884;64.758;20.962;2023-07-20T09:36:48;2.70;;;2.50;;
46417;SDS011;69884;64.758;20.962;2023-07-20T09:39:17;3.20;;;2.47;;
46417;SDS011;69884;64.758;20.962;2023-07-20T09:41:42;2.63;;;2.30;;
46417;SDS011;69884;64.758;20.962;2023-07-20T09:44:07;2.67;;;2.47;;
46417;SDS011;69884;64.758;20.962;2023-07-20T09:46:42;2.70;;;2.50;;
46417;SDS011;69884;64.758;20.962;2023-07-20T09:49:08;2.70;;;2.50;;
46417;SDS011;69884;64.758;20.962;2023-07-20T09:51:33;3.20;;;2.50;;
46417;SDS011;69884;64.758;20.962;2023-07-20T09:53:59;2.60;;;2.20;;
46417;SDS011;69884;64.758;20.962;2023-07-20T09:56:24;2.67;;;2.47;;
46417;SDS011;69884;64.758;20.962;2023-07-20T09:58:50;2.65;;;2.45;;
46417;SDS011;69884;64.758;20.962;2023-07-20T10:01:17;2.77;;;2.47;;
46417;SDS011;69884;64.758;20.962;2023-07-20T10:03:43;3.08;;;2.78;;
46417;SDS011;69884;64.758;20.962;2023-07-20T10:06:10;3.58;;;3.28;;
46417;SDS011;69884;64.758;20.962;2023-07-20T10:08:43;3.22;;;3.00;;
46417;SDS011;69884;64.758;20.962;2023-07-20T10:11:09;4.30;;;3.30;;
46417;SDS011;69884;64.758;20.962;2023-07-20T10:13:37;3.78;;;3.30;;
46417;SDS011;69884;64.758;20.962;2023-07-20T10:16:14;3.72;;;3.42;;
46417;SDS011;69884;64.758;20.962;2023-07-20T10:18:46;4.10;;;3.70;;
46417;SDS011;69884;64.758;20.962;2023-07-20T10:21:14;4.18;;;3.30;;
46417;SDS011;69884;64.758;20.962;2023-07-20T10:23:41;3.97;;;3.58;;
46417;SDS011;69884;64.758;20.962;2023-07-20T10:26:07;4.07;;;3.70;;
46417;SDS011;69884;64.758;20.962;2023-07-20T10:28:33;3.70;;;3.40;;
46417;SDS011;69884;64.758;20.962;2023-07-20T10:30:58;4.10;;;3.77;;
46417;SDS011;69884;64.758;20.962;2023-07-20T10:33:24;3.70;;;3.40;;
46417;SDS011;69884;64.758;20.962;2023-07-20T10:38:17;5.00;;;4.45;;
46417;SDS011;69884;64.758;20.962;2023-07-20T10:40:43;5.27;;;4.77;;
46417;SDS011;69884;64.758;20.962;2023-07-20T10:43:18;6.13;;;5.35;;
46417;SDS011;69884;64.758;20.962;2023-07-20T10:45:51;5.70;;;5.20;;
46417;SDS011;69884;64.758;20.962;2023-07-20T10:48:18;6.63;;;5.93;;
46417;SDS011;69884;64.758;20.962;2023-07-20T10:50:44;6.65;;;5.97;;
46417;SDS011;69884;64.758;20.962;2023-07-20T10:53:13;7.80;;;6.70;;
46417;SDS011;69884;64.758;20.962;2023-07-20T10:55:39;6.43;;;5.80;;
46417;SDS011;69884;64.758;20.962;2023-07-20T11:07:01;5.37;;;4.87;;
46417;SDS011;69884;64.758;20.962;2023-07-20T11:09:32;5.80;;;4.47;;
46417;SDS011;69884;64.758;20.962;2023-07-20T11:12:11;5.80;;;4.50;;
46417;SDS011;69884;64.758;20.962;2023-07-20T11:18:23;5.22;;;4.20;;
46417;SDS011;69884;64.758;20.962;2023-07-20T11:21:22;4.63;;;4.00;;
46417;SDS011;69884;64.758;20.962;2023-07-20T11:23:53;4.05;;;3.75;;
46417;SDS011;69884;64.758;20.962;2023-07-20T11:26:24;4.28;;;3.80;;
46417;SDS011;69884;64.758;20.962;2023-07-20T11:29:12;4.10;;;3.70;;
46417;SDS011;69884;64.758;20.962;2023-07-20T11:31:53;5.20;;;4.00;;
46417;SDS011;69884;64.758;20.962;2023-07-20T11:34:24;4.10;;;3.80;;
46417;SDS011;69884;64.758;20.962;2023-07-20T11:37:05;3.57;;;3.27;;
46417;SDS011;69884;64.758;20.962;2023-07-20T11:42:26;4.15;;;3.75;;
46417;SDS011;69884;64.758;20.962;2023-07-20T11:45:02;4.73;;;3.77;;
46417;SDS011;69884;64.758;20.962;2023-07-20T11:47:31;4.68;;;3.60;;
46417;SDS011;69884;64.758;20.962;2023-07-20T11:49:57;4.20;;;3.80;;
46417;SDS011;69884;64.758;20.962;2023-07-20T11:52:27;5.00;;;4.43;;
46417;SDS011;69884;64.758;20.962;2023-07-20T11:54:53;4.40;;;3.92;;
46417;SDS011;69884;64.758;20.962;2023-07-20T11:57:21;4.18;;;3.80;;
46417;SDS011;69884;64.758;20.962;2023-07-20T11:59:56;4.43;;;4.00;;
46417;SDS011;69884;64.758;20.962;2023-07-20T12:02:22;4.43;;;4.03;;
46417;SDS011;69884;64.758;20.962;2023-07-20T12:04:47;5.80;;;4.23;;
46417;SDS011;69884;64.758;20.962;2023-07-20T12:07:13;5.03;;;4.57;;
46417;SDS011;69884;64.758;20.962;2023-07-20T12:09:38;5.50;;;4.47;;
46417;SDS011;69884;64.758;20.962;2023-07-20T12:12:09;5.57;;;4.80;;
46417;SDS011;69884;64.758;20.962;2023-07-20T12:14:35;5.00;;;4.50;;
46417;SDS011;69884;64.758;20.962;2023-07-20T12:17:00;5.03;;;4.53;;
46417;SDS011;69884;64.758;20.962;2023-07-20T12:19:26;4.90;;;4.13;;
46417;SDS011;69884;64.758;20.962;2023-07-20T12:21:57;4.50;;;4.10;;
46417;SDS011;69884;64.758;20.962;2023-07-20T12:24:27;4.88;;;4.45;;
46417;SDS011;69884;64.758;20.962;2023-07-20T12:27:01;5.07;;;4.18;;
46417;SDS011;69884;64.758;20.962;2023-07-20T12:29:29;5.63;;;4.30;;
46417;SDS011;69884;64.758;20.962;2023-07-20T12:31:54;7.13;;;4.10;;
46417;SDS011;69884;64.758;20.962;2023-07-20T12:34:20;5.13;;;4.20;;
46417;SDS011;69884;64.758;20.962;2023-07-20T12:36:45;5.87;;;4.47;;
46417;SDS011;69884;64.758;20.962;2023-07-20T12:39:10;4.43;;;4.03;;
46417;SDS011;69884;64.758;20.962;2023-07-20T12:41:35;5.13;;;4.60;;
46417;SDS011;69884;64.758;20.962;2023-07-20T12:44:01;4.90;;;4.30;;
46417;SDS011;69884;64.758;20.962;2023-07-20T12:46:26;5.10;;;4.00;;
46417;SDS011;69884;64.758;20.962;2023-07-20T12:48:54;5.20;;;4.10;;
46417;SDS011;69884;64.758;20.962;2023-07-20T12:51:19;4.93;;;4.13;;
46417;SDS011;69884;64.758;20.962;2023-07-20T12:53:44;5.93;;;4.47;;
46417;SDS011;69884;64.758;20.962;2023-07-20T12:56:10;5.07;;;4.20;;
46417;SDS011;69884;64.758;20.962;2023-07-20T12:58:35;4.87;;;4.37;;
46417;SDS011;69884;64.758;20.962;2023-07-20T13:01:01;5.10;;;4.32;;
46417;SDS011;69884;64.758;20.962;2023-07-20T13:03:27;5.10;;;4.60;;
46417;SDS011;69884;64.758;20.962;2023-07-20T13:05:52;5.93;;;4.47;;
46417;SDS011;69884;64.758;20.962;2023-07-20T13:08:18;6.77;;;4.70;;
46417;SDS011;69884;64.758;20.962;2023-07-20T13:10:44;7.83;;;4.90;;
46417;SDS011;69884;64.758;20.962;2023-07-20T13:13:10;5.37;;;4.87;;
46417;SDS011;69884;64.758;20.962;2023-07-20T13:15:42;6.23;;;4.83;;
46417;SDS011;69884;64.758;20.962;2023-07-20T13:18:07;5.43;;;4.55;;
46417;SDS011;69884;64.758;20.962;2023-07-20T13:20:33;5.03;;;4.50;;
46417;SDS011;69884;64.758;20.962;2023-07-20T13:22:58;6.67;;;4.30;;
46417;SDS011;69884;64.758;20.962;2023-07-20T13:25:24;5.00;;;4.50;;
46417;SDS011;69884;64.758;20.962;2023-07-20T13:27:49;6.10;;;5.50;;
46417;SDS011;69884;64.758;20.962;2023-07-20T13:30:14;6.10;;;5.50;;
46417;SDS011;69884;64.758;20.962;2023-07-20T13:32:44;5.55;;;4.88;;
46417;SDS011;69884;64.758;20.962;2023-07-20T13:35:10;7.45;;;5.55;;
46417;SDS011;69884;64.758;20.962;2023-07-20T13:37:36;6.10;;;5.50;;
46417;SDS011;69884;64.758;20.962;2023-07-20T13:40:01;7.53;;;5.35;;
46417;SDS011;69884;64.758;20.962;2023-07-20T13:42:26;6.85;;;5.20;;
46417;SDS011;69884;64.758;20.962;2023-07-20T13:44:52;6.83;;;5.57;;
46417;SDS011;69884;64.758;20.962;2023-07-20T13:47:17;7.07;;;5.00;;
46417;SDS011;69884;64.758;20.962;2023-07-20T13:49:43;5.28;;;4.88;;
46417;SDS011;69884;64.758;20.962;2023-07-20T13:52:08;5.23;;;4.70;;
46417;SDS011;69884;64.758;20.962;2023-07-20T13:54:34;6.73;;;5.70;;
46417;SDS011;69884;64.758;20.962;2023-07-20T13:56:59;6.33;;;5.13;;
46417;SDS011;69884;64.758;20.962;2023-07-20T13:59:24;5.70;;;5.20;;
46417;SDS011;69884;64.758;20.962;2023-07-20T14:01:50;5.38;;;4.88;;
46417;SDS011;69884;64.758;20.962;2023-07-20T14:04:15;6.35;;;5.10;;
46417;SDS011;69884;64.758;20.962;2023-07-20T14:06:41;6.23;;;5.00;;
46417;SDS011;69884;64.758;20.962;2023-07-20T14:09:06;6.43;;;5.10;;
46417;SDS011;69884;64.758;20.962;2023-07-20T14:11:31;6.00;;;5.10;;
46417;SDS011;69884;64.758;20.962;2023-07-20T14:13:59;6.10;;;5.17;;
46417;SDS011;69884;64.758;20.962;2023-07-20T14:19:04;7.93;;;5.60;;
46417;SDS011;69884;64.758;20.962;2023-07-20T14:28:31;6.13;;;5.22;;
46417;SDS011;69884;64.758;20.962;2023-07-20T14:31:04;7.35;;;5.30;;
46417;SDS011;69884;64.758;20.962;2023-07-20T14:34:19;5.70;;;4.88;;
46417;SDS011;69884;64.758;20.962;2023-07-20T14:37:19;7.20;;;5.32;;
46417;SDS011;69884;64.758;20.962;2023-07-20T14:43:15;5.28;;;4.78;;
46417;SDS011;69884;64.758;20.962;2023-07-20T14:52:11;5.50;;;4.97;;
46417;SDS011;69884;64.758;20.962;2023-07-20T14:58:14;6.47;;;5.80;;
46417;SDS011;69884;64.758;20.962;2023-07-20T15:01:05;5.80;;;5.23;;
46417;SDS011;69884;64.758;20.962;2023-07-20T15:25:58;6.43;;;5.80;;
46417;SDS011;69884;64.758;20.962;2023-07-20T15:29:10;7.05;;;5.97;;
46417;SDS011;69884;64.758;20.962;2023-07-20T15:31:44;8.32;;;7.15;;
46417;SDS011;69884;64.758;20.962;2023-07-20T15:37:31;5.60;;;5.10;;
46417;SDS011;69884;64.758;20.962;2023-07-20T15:42:59;5.22;;;4.72;;
46417;SDS011;69884;64.758;20.962;2023-07-20T16:00:29;6.53;;;4.97;;
46417;SDS011;69884;64.758;20.962;2023-07-20T16:06:18;5.70;;;5.05;;
46417;SDS011;69884;64.758;20.962;2023-07-20T16:09:02;6.93;;;5.40;;
46417;SDS011;69884;64.758;20.962;2023-07-20T16:11:50;6.25;;;4.80;;
46417;SDS011;69884;64.758;20.962;2023-07-20T16:14:29;6.37;;;5.53;;
46417;SDS011;69884;64.758;20.962;2023-07-20T16:16:57;5.55;;;4.95;;
46417;SDS011;69884;64.758;20.962;2023-07-20T16:19:29;8.82;;;5.35;;
46417;SDS011;69884;64.758;20.962;2023-07-20T16:21:55;5.57;;;4.97;;
46417;SDS011;69884;64.758;20.962;2023-07-20T16:24:29;5.57;;;4.85;;
46417;SDS011;69884;64.758;20.962;2023-07-20T16:26:58;5.40;;;4.90;;
46417;SDS011;69884;64.758;20.962;2023-07-20T16:29:26;6.13;;;5.53;;
46417;SDS011;69884;64.758;20.962;2023-07-20T16:31:52;5.63;;;4.95;;
46417;SDS011;69884;64.758;20.962;2023-07-20T16:34:18;5.95;;;5.28;;
46417;SDS011;69884;64.758;20.962;2023-07-20T16:39:45;5.40;;;4.85;;
46417;SDS011;69884;64.758;20.962;2023-07-20T16:42:18;6.35;;;5.07;;
46417;SDS011;69884;64.758;20.962;2023-07-20T16:44:48;5.65;;;5.05;;
46417;SDS011;69884;64.758;20.962;2023-07-20T16:47:20;6.50;;;4.80;;
46417;SDS011;69884;64.758;20.962;2023-07-20T16:49:46;5.20;;;4.70;;
46417;SDS011;69884;64.758;20.962;2023-07-20T16:52:19;6.07;;;5.47;;
46417;SDS011;69884;64.758;20.962;2023-07-20T16:54:45;6.80;;;5.70;;
46417;SDS011;69884;64.758;20.962;2023-07-20T16:57:13;5.70;;;5.20;;
46417;SDS011;69884;64.758;20.962;2023-07-20T16:59:46;6.85;;;6.20;;
46417;SDS011;69884;64.758;20.962;2023-07-20T17:02:29;7.22;;;6.18;;
46417;SDS011;69884;64.758;20.962;2023-07-20T17:04:58;6.30;;;5.70;;
46417;SDS011;69884;64.758;20.962;2023-07-20T17:07:27;7.45;;;5.57;;
46417;SDS011;69884;64.758;20.962;2023-07-20T17:09:52;6.13;;;5.53;;
46417;SDS011;69884;64.758;20.962;2023-07-20T17:12:21;6.13;;;5.50;;
46417;SDS011;69884;64.758;20.962;2023-07-20T17:14:46;6.73;;;5.73;;
46417;SDS011;69884;64.758;20.962;2023-07-20T17:17:12;6.20;;;5.53;;
46417;SDS011;69884;64.758;20.962;2023-07-20T17:19:42;7.35;;;5.45;;
46417;SDS011;69884;64.758;20.962;2023-07-20T17:22:17;6.22;;;5.63;;
46417;SDS011;69884;64.758;20.962;2023-07-20T17:25:00;6.68;;;6.03;;
46417;SDS011;69884;64.758;20.962;2023-07-20T17:27:29;7.25;;;5.75;;
46417;SDS011;69884;64.758;20.962;2023-07-20T17:29:57;7.97;;;6.03;;
46417;SDS011;69884;64.758;20.962;2023-07-20T17:32:39;8.95;;;6.53;;
46417;SDS011;69884;64.758;20.962;2023-07-20T17:35:04;6.65;;;5.65;;
46417;SDS011;69884;64.758;20.962;2023-07-20T17:43:37;6.63;;;5.72;;
46417;SDS011;69884;64.758;20.962;2023-07-20T17:46:09;11.07;;;6.97;;
46417;SDS011;69884;64.758;20.962;2023-07-20T17:48:34;6.60;;;5.80;;
46417;SDS011;69884;64.758;20.962;2023-07-20T17:51:09;6.53;;;5.93;;
46417;SDS011;69884;64.758;20.962;2023-07-20T17:53:45;8.00;;;5.95;;
46417;SDS011;69884;64.758;20.962;2023-07-20T17:56:20;7.30;;;6.10;;
46417;SDS011;69884;64.758;20.962;2023-07-20T17:58:51;7.00;;;6.27;;
46417;SDS011;69884;64.758;20.962;2023-07-20T18:01:38;6.20;;;5.60;;
46417;SDS011;69884;64.758;20.962;2023-07-20T18:04:08;8.10;;;5.80;;
46417;SDS011;69884;64.758;20.962;2023-07-20T18:06:42;8.47;;;6.17;;
46417;SDS011;69884;64.758;20.962;2023-07-20T18:09:15;7.28;;;6.07;;
46417;SDS011;69884;64.758;20.962;2023-07-20T18:11:42;7.45;;;5.65;;
46417;SDS011;69884;64.758;20.962;2023-07-20T18:14:07;6.00;;;5.30;;
46417;SDS011;69884;64.758;20.962;2023-07-20T18:16:36;6.25;;;5.65;;
46417;SDS011;69884;64.758;20.962;2023-07-20T18:19:06;5.70;;;5.20;;
46417;SDS011;69884;64.758;20.962;2023-07-20T18:21:34;5.93;;;5.30;;
46417;SDS011;69884;64.758;20.962;2023-07-20T18:24:02;5.93;;;5.20;;
46417;SDS011;69884;64.758;20.962;2023-07-20T18:29:29;6.33;;;5.27;;
46417;SDS011;69884;64.758;20.962;2023-07-20T18:31:54;6.07;;;5.47;;
46417;SDS011;69884;64.758;20.962;2023-07-20T18:34:23;6.53;;;5.07;;
46417;SDS011;69884;64.758;20.962;2023-07-20T18:36:54;7.93;;;5.20;;
46417;SDS011;69884;64.758;20.962;2023-07-20T18:39:35;5.65;;;5.10;;
46417;SDS011;69884;64.758;20.962;2023-07-20T18:42:05;6.07;;;5.43;;
46417;SDS011;69884;64.758;20.962;2023-07-20T18:44:33;5.33;;;4.83;;
46417;SDS011;69884;64.758;20.962;2023-07-20T18:46:59;5.32;;;4.80;;
46417;SDS011;69884;64.758;20.962;2023-07-20T18:49:28;5.70;;;5.13;;
46417;SDS011;69884;64.758;20.962;2023-07-20T18:54:46;6.20;;;5.15;;
46417;SDS011;69884;64.758;20.962;2023-07-20T18:57:15;6.07;;;5.30;;
46417;SDS011;69884;64.758;20.962;2023-07-20T19:02:52;5.78;;;5.13;;
46417;SDS011;69884;64.758;20.962;2023-07-20T19:05:25;5.75;;;5.25;;
46417;SDS011;69884;64.758;20.962;2023-07-20T19:10:58;6.13;;;5.50;;
46417;SDS011;69884;64.758;20.962;2023-07-20T19:13:32;6.30;;;5.68;;
46417;SDS011;69884;64.758;20.962;2023-07-20T19:16:15;6.63;;;5.97;;
46417;SDS011;69884;64.758;20.962;2023-07-20T19:22:16;6.65;;;5.75;;
46417;SDS011;69884;64.758;20.962;2023-07-20T19:24:58;5.90;;;5.32;;
46417;SDS011;69884;64.758;20.962;2023-07-20T19:27:32;6.57;;;5.10;;
46417;SDS011;69884;64.758;20.962;2023-07-20T19:30:06;8.38;;;6.13;;
46417;SDS011;69884;64.758;20.962;2023-07-20T19:32:59;6.53;;;5.93;;
46417;SDS011;69884;64.758;20.962;2023-07-20T19:35:39;6.13;;;5.53;;
46417;SDS011;69884;64.758;20.962;2023-07-20T19:38:23;8.48;;;6.18;;
46417;SDS011;69884;64.758;20.962;2023-07-20T19:40:54;6.75;;;5.03;;
46417;SDS011;69884;64.758;20.962;2023-07-20T19:46:24;7.72;;;6.68;;
46417;SDS011;69884;64.758;20.962;2023-07-20T19:49:09;6.38;;;5.78;;
46417;SDS011;69884;64.758;20.962;2023-07-20T19:54:26;6.50;;;5.97;;
46417;SDS011;69884;64.758;20.962;2023-07-20T19:57:00;7.57;;;6.17;;
46417;SDS011;69884;64.758;20.962;2023-07-20T19:59:51;7.50;;;6.35;;
46417;SDS011;69884;64.758;20.962;2023-07-20T20:05:19;6.35;;;5.60;;
46417;SDS011;69884;64.758;20.962;2023-07-20T20:11:00;5.90;;;5.32;;
46417;SDS011;69884;64.758;20.962;2023-07-20T20:13:44;6.10;;;5.53;;
46417;SDS011;69884;64.758;20.962;2023-07-20T20:38:18;5.05;;;4.53;;
46417;SDS011;69884;64.758;20.962;2023-07-20T20:47:06;4.80;;;4.00;;
46417;SDS011;69884;64.758;20.962;2023-07-20T21:02:34;4.38;;;3.97;;
46417;SDS011;69884;64.758;20.962;2023-07-20T21:14:55;6.00;;;4.28;;
46417;SDS011;69884;64.758;20.962;2023-07-20T21:42:56;4.82;;;4.38;;
46417;SDS011;69884;64.758;20.962;2023-07-20T21:57:59;3.70;;;3.40;;
